createdAt,value
2018-04-13T00:00:42.284Z,5.27
2018-04-13T00:03:09.868Z,7.50
2018-04-13T00:05:37.349Z,4.97
2018-04-13T00:08:04.837Z,4.97
2018-04-13T00:10:32.327Z,8.00
2018-04-13T00:12:59.830Z,7.50
2018-04-13T00:15:27.354Z,5.10
2018-04-13T00:17:54.843Z,11.93
2018-04-13T00:20:22.414Z,4.93
2018-04-13T00:22:49.905Z,14.93
2018-04-13T00:25:17.385Z,6.73
2018-04-13T00:27:44.892Z,12.10
2018-04-13T00:30:12.363Z,6.30
2018-04-13T00:32:39.835Z,8.77
2018-04-13T00:35:07.312Z,8.27
2018-04-13T00:37:34.810Z,10.27
2018-04-13T00:40:02.316Z,8.83
2018-04-13T00:42:29.887Z,9.57
2018-04-13T00:44:57.357Z,7.17
2018-04-13T00:47:24.985Z,10.30
2018-04-13T00:49:52.438Z,8.67
2018-04-13T00:52:19.931Z,5.23
2018-04-13T00:54:47.442Z,7.50
2018-04-13T00:57:14.957Z,7.93
2018-04-13T00:59:42.463Z,5.53
2018-04-13T01:02:09.994Z,8.43
2018-04-13T01:04:37.510Z,12.10
2018-04-13T01:07:05.018Z,7.03
2018-04-13T01:09:32.564Z,12.23
2018-04-13T01:12:00.081Z,5.47
2018-04-13T01:14:27.592Z,10.53
2018-04-13T01:16:55.132Z,4.00
2018-04-13T01:19:22.636Z,10.30
2018-04-13T01:21:50.138Z,6.17
2018-04-13T01:24:17.780Z,11.53
2018-04-13T01:26:45.234Z,7.87
2018-04-13T01:29:12.724Z,6.63
2018-04-13T01:31:40.210Z,8.27
2018-04-13T01:34:07.695Z,7.27
2018-04-13T01:36:35.204Z,7.10
2018-04-13T01:39:02.778Z,4.70
2018-04-13T01:41:30.248Z,5.17
2018-04-13T01:43:57.730Z,7.13
2018-04-13T01:46:25.233Z,14.47
2018-04-13T01:48:52.748Z,5.57
2018-04-13T01:51:20.296Z,15.43
2018-04-13T01:53:47.783Z,6.10
2018-04-13T01:56:15.271Z,6.80
2018-04-13T01:58:42.758Z,8.43
2018-04-13T02:01:10.248Z,8.20
2018-04-13T02:03:37.714Z,8.27
2018-04-13T02:06:05.212Z,8.20
2018-04-13T02:08:32.721Z,9.10
2018-04-13T02:11:00.217Z,10.33
2018-04-13T02:13:27.689Z,6.30
2018-04-13T02:15:55.192Z,9.67
2018-04-13T02:18:22.684Z,13.87
2018-04-13T02:20:50.164Z,5.50
2018-04-13T02:23:17.668Z,10.00
2018-04-13T02:25:45.163Z,6.33
2018-04-13T02:28:12.670Z,10.13
2018-04-13T02:30:40.169Z,11.20
2018-04-13T02:33:07.661Z,10.90
2018-04-13T02:35:35.145Z,8.90
2018-04-13T02:38:02.648Z,4.63
2018-04-13T02:40:30.160Z,4.33
2018-04-13T02:42:57.648Z,7.80
2018-04-13T02:45:25.138Z,5.10
2018-04-13T02:47:52.666Z,6.97
2018-04-13T02:50:20.151Z,5.03
2018-04-13T02:52:47.665Z,5.27
2018-04-13T02:55:15.244Z,6.33
2018-04-13T02:57:42.730Z,6.30
2018-04-13T03:00:10.211Z,9.93
2018-04-13T03:02:37.701Z,9.60
2018-04-13T03:05:05.207Z,8.77
2018-04-13T03:07:32.701Z,8.50
2018-04-13T03:10:00.292Z,9.83
2018-04-13T03:12:27.795Z,13.73
2018-04-13T03:14:55.278Z,10.90
2018-04-13T03:17:22.820Z,9.45
2018-04-13T03:19:50.316Z,10.40
2018-04-13T03:22:18.624Z,6.33
2018-04-13T03:24:46.227Z,17.05
2018-04-13T03:27:13.730Z,12.23
2018-04-13T03:29:41.214Z,5.43
2018-04-13T03:32:08.708Z,8.43
2018-04-13T03:34:36.281Z,8.17
2018-04-13T03:37:03.768Z,5.57
2018-04-13T03:39:31.272Z,9.73
2018-04-13T03:41:58.785Z,7.93
2018-04-13T03:44:26.258Z,6.90
2018-04-13T03:46:53.764Z,14.80
2018-04-13T03:49:21.257Z,11.47
2018-04-13T03:51:48.748Z,11.50
2018-04-13T03:54:16.235Z,7.70
2018-04-13T03:56:43.729Z,13.03
2018-04-13T03:59:11.193Z,19.47
2018-04-13T04:01:38.662Z,15.27
2018-04-13T04:04:06.174Z,12.83
2018-04-13T04:06:33.669Z,9.97
2018-04-13T04:09:01.228Z,15.13
2018-04-13T04:11:28.717Z,16.17
2018-04-13T04:13:56.203Z,13.97
2018-04-13T04:16:23.703Z,15.45
2018-04-13T04:18:51.271Z,14.90
2018-04-13T04:21:31.484Z,12.67
2018-04-13T04:24:10.871Z,18.43
2018-04-13T04:26:48.056Z,12.60
2018-04-13T04:29:15.592Z,20.33
2018-04-13T04:31:43.148Z,11.90
2018-04-13T04:34:10.657Z,14.87
2018-04-13T04:36:38.138Z,11.23
2018-04-13T04:39:06.404Z,14.90
2018-04-13T04:41:33.986Z,12.50
2018-04-13T04:44:01.473Z,19.20
2018-04-13T04:46:28.958Z,12.10
2018-04-13T04:48:56.540Z,17.20
2018-04-13T04:51:24.062Z,14.87
2018-04-13T04:53:51.553Z,19.30
2018-04-13T04:56:19.043Z,17.03
2018-04-13T04:58:46.522Z,15.10
2018-04-13T05:01:14.008Z,13.03
2018-04-13T05:03:41.579Z,14.17
2018-04-13T05:06:09.034Z,9.70
2018-04-13T05:08:36.551Z,14.93
2018-04-13T05:11:04.062Z,11.80
2018-04-13T05:13:31.629Z,16.90
2018-04-13T05:15:59.118Z,11.53
2018-04-13T05:18:26.607Z,18.93
2018-04-13T05:20:54.165Z,10.73
2018-04-13T05:23:21.647Z,11.20
2018-04-13T05:25:49.166Z,12.73
2018-04-13T05:28:16.661Z,15.23
2018-04-13T05:30:44.164Z,18.43
2018-04-13T05:33:11.710Z,11.00
2018-04-13T05:35:39.179Z,10.07
2018-04-13T05:38:06.711Z,16.70
2018-04-13T05:40:34.225Z,11.00
2018-04-13T05:43:01.717Z,11.50
2018-04-13T05:45:29.213Z,12.13
2018-04-13T05:47:56.690Z,14.33
2018-04-13T05:50:24.172Z,15.80
2018-04-13T05:52:51.687Z,8.53
2018-04-13T05:55:19.180Z,7.67
2018-04-13T05:57:47.120Z,11.23
2018-04-13T06:00:14.659Z,17.40
2018-04-13T06:02:42.135Z,21.00
2018-04-13T06:05:09.637Z,13.33
2018-04-13T06:07:37.162Z,14.40
2018-04-13T06:10:04.659Z,11.13
2018-04-13T06:12:32.346Z,14.90
2018-04-13T06:15:00.005Z,12.93
2018-04-13T06:17:27.497Z,13.50
2018-04-13T06:19:55.228Z,11.27
2018-04-13T06:22:23.881Z,14.00
2018-04-13T06:24:52.619Z,19.57
2018-04-13T06:27:20.110Z,14.30
2018-04-13T06:29:47.672Z,12.53
2018-04-13T06:32:15.181Z,18.07
2018-04-13T06:34:42.791Z,21.90
2018-04-13T06:37:10.314Z,18.70
2018-04-13T06:39:37.924Z,13.80
2018-04-13T06:42:05.415Z,16.97
2018-04-13T06:44:34.126Z,17.40
2018-04-13T06:47:01.655Z,14.10
2018-04-13T06:49:29.147Z,10.83
2018-04-13T06:51:56.650Z,14.87
2018-04-13T06:54:24.144Z,16.60
2018-04-13T06:56:51.638Z,15.40
2018-04-13T06:59:19.138Z,20.23
2018-04-13T07:01:46.630Z,21.33
2018-04-13T07:04:14.121Z,22.03
2018-04-13T07:06:41.781Z,18.60
2018-04-13T07:09:09.394Z,19.50
2018-04-13T07:11:36.887Z,36.17
2018-04-13T07:14:04.415Z,25.07
2018-04-13T07:16:32.057Z,18.73
2018-04-13T07:18:59.622Z,21.73
2018-04-13T07:21:27.190Z,25.27
2018-04-13T07:23:54.680Z,20.20
2018-04-13T07:26:22.177Z,26.77
2018-04-13T07:28:49.701Z,21.10
2018-04-13T07:31:17.315Z,24.87
2018-04-13T07:33:44.801Z,15.93
2018-04-13T07:36:12.506Z,22.93
2018-04-13T07:38:40.211Z,31.63
2018-04-13T07:41:07.729Z,24.67
2018-04-13T07:43:35.232Z,32.40
2018-04-13T07:46:02.796Z,24.13
2018-04-13T07:48:30.260Z,19.63
2018-04-13T07:50:57.770Z,20.23
2018-04-13T07:53:25.263Z,23.43
2018-04-13T07:55:52.735Z,25.63
2018-04-13T07:58:20.301Z,25.43
2018-04-13T08:00:47.799Z,22.23
2018-04-13T08:03:15.347Z,23.13
2018-04-13T08:05:42.830Z,20.73
2018-04-13T08:08:10.511Z,25.20
2018-04-13T08:10:37.930Z,21.80
2018-04-13T08:13:05.645Z,20.23
2018-04-13T08:15:33.148Z,23.70
2018-04-13T08:18:00.715Z,21.27
2018-04-13T08:20:28.450Z,20.57
2018-04-13T08:22:55.936Z,27.90
2018-04-13T08:25:23.559Z,24.73
2018-04-13T08:27:51.152Z,25.90
2018-04-13T08:30:18.703Z,22.93
2018-04-13T08:32:46.253Z,23.70
2018-04-13T08:35:13.756Z,31.60
2018-04-13T08:37:41.596Z,24.93
2018-04-13T08:40:09.136Z,27.10
2018-04-13T08:42:37.068Z,32.10
2018-04-13T08:45:04.574Z,28.00
2018-04-13T08:47:32.070Z,28.67
2018-04-13T08:49:59.569Z,22.13
2018-04-13T08:52:27.200Z,20.93
2018-04-13T08:54:54.765Z,23.13
2018-04-13T08:57:22.234Z,20.63
2018-04-13T08:59:49.755Z,25.70
2018-04-13T09:02:17.247Z,24.33
2018-04-13T09:04:44.789Z,15.00
2018-04-13T09:07:12.288Z,18.00
2018-04-13T09:09:39.793Z,19.40
2018-04-13T09:12:07.372Z,16.53
2018-04-13T09:14:39.497Z,14.10
2018-04-13T09:17:07.063Z,18.83
2018-04-13T09:19:34.567Z,19.17
2018-04-13T09:22:02.157Z,10.80
2018-04-13T09:24:29.964Z,10.37
2018-04-13T09:26:57.774Z,12.50
2018-04-13T09:29:25.343Z,13.60
2018-04-13T09:31:52.870Z,12.07
2018-04-13T09:34:20.384Z,16.07
2018-04-13T09:36:47.870Z,15.83
2018-04-13T09:39:15.411Z,13.57
2018-04-13T09:41:43.869Z,17.23
2018-04-13T09:44:11.355Z,14.90
2018-04-13T09:46:38.887Z,14.47
2018-04-13T09:49:06.373Z,15.47
2018-04-13T09:51:33.889Z,12.80
2018-04-13T09:54:01.391Z,10.40
2018-04-13T09:56:30.037Z,16.30
2018-04-13T09:58:57.587Z,14.53
2018-04-13T10:01:25.163Z,12.43
2018-04-13T10:04:05.172Z,9.80
2018-04-13T10:06:32.666Z,12.40
2018-04-13T10:09:00.137Z,9.30
2018-04-13T10:11:27.611Z,14.93
2018-04-13T10:13:55.084Z,8.30
2018-04-13T10:16:22.630Z,5.20
2018-04-13T10:18:50.112Z,9.50
2018-04-13T10:21:17.603Z,6.20
2018-04-13T10:23:45.092Z,16.70
2018-04-13T10:26:18.580Z,6.90
2018-04-13T10:28:46.190Z,8.87
2018-04-13T10:31:13.693Z,12.40
2018-04-13T10:33:43.416Z,12.93
2018-04-13T10:36:11.070Z,19.13
2018-04-13T10:38:38.578Z,17.40
2018-04-13T10:41:06.096Z,12.00
2018-04-13T10:43:33.651Z,16.00
2018-04-13T10:46:01.154Z,16.70
2018-04-13T10:48:28.710Z,17.73
2018-04-13T10:50:56.201Z,19.90
2018-04-13T10:53:23.708Z,16.93
2018-04-13T10:55:51.674Z,21.43
2018-04-13T10:58:19.551Z,20.90
2018-04-13T11:00:47.072Z,20.83
2018-04-13T11:03:14.657Z,26.40
2018-04-13T11:05:42.144Z,28.27
2018-04-13T11:08:09.791Z,29.43
2018-04-13T11:10:37.343Z,26.30
2018-04-13T11:13:04.842Z,29.23
2018-04-13T11:15:32.341Z,24.77
2018-04-13T11:17:59.932Z,28.00
2018-04-13T11:20:27.565Z,27.30
2018-04-13T11:22:55.104Z,26.50
2018-04-13T11:25:22.573Z,35.53
2018-04-13T11:27:50.043Z,32.37
2018-04-13T11:30:17.588Z,34.43
2018-04-13T11:32:45.216Z,30.77
2018-04-13T11:35:13.030Z,30.40
2018-04-13T11:37:40.531Z,34.33
2018-04-13T11:43:20.786Z,25.10
2018-04-13T11:45:48.296Z,24.40
2018-04-13T11:48:15.783Z,26.03
2018-04-13T11:50:43.328Z,24.13
2018-04-13T11:53:10.820Z,21.47
2018-04-13T11:55:38.316Z,22.73
2018-04-13T11:58:05.823Z,19.83
2018-04-13T12:00:33.348Z,16.13
2018-04-13T12:03:00.858Z,9.67
2018-04-13T12:05:28.352Z,13.10
2018-04-13T12:07:55.880Z,24.60
2018-04-13T12:10:23.381Z,11.43
2018-04-13T12:12:50.869Z,11.47
2018-04-13T12:15:18.741Z,18.60
2018-04-13T12:17:46.249Z,11.47
2018-04-13T12:20:13.727Z,6.90
2018-04-13T12:22:41.215Z,9.23
2018-04-13T12:25:08.711Z,5.30
2018-04-13T12:27:36.232Z,6.33
2018-04-13T12:30:03.784Z,6.27
2018-04-13T12:32:31.282Z,6.70
2018-04-13T12:34:58.854Z,4.50
2018-04-13T12:37:26.385Z,4.23
2018-04-13T12:39:53.863Z,5.43
2018-04-13T12:42:21.352Z,6.33
2018-04-13T12:44:48.917Z,2.90
2018-04-13T12:47:16.389Z,3.80
2018-04-13T12:49:43.894Z,2.43
2018-04-13T12:52:11.388Z,5.20
2018-04-13T12:54:39.176Z,3.07
2018-04-13T12:57:06.513Z,4.43
2018-04-13T12:59:34.037Z,2.60
2018-04-13T13:02:01.533Z,4.00
2018-04-13T13:04:29.042Z,3.90
2018-04-13T13:06:56.532Z,3.73
2018-04-13T13:09:24.034Z,4.80
2018-04-13T13:11:51.534Z,5.20
2018-04-13T13:14:19.054Z,4.80
2018-04-13T13:16:46.540Z,5.40
2018-04-13T13:19:14.077Z,9.37
2018-04-13T13:21:41.572Z,8.90
2018-04-13T13:24:09.133Z,8.90
2018-04-13T13:26:36.617Z,7.90
2018-04-13T13:29:04.131Z,10.40
2018-04-13T13:31:31.655Z,7.17
2018-04-13T13:33:59.182Z,9.20
2018-04-13T13:36:26.672Z,5.37
2018-04-13T13:38:54.162Z,8.90
2018-04-13T13:41:21.647Z,6.07
2018-04-13T13:43:49.147Z,11.80
2018-04-13T13:46:16.642Z,6.73
2018-04-13T13:48:44.207Z,5.63
2018-04-13T13:51:11.681Z,5.63
2018-04-13T13:53:39.170Z,4.77
2018-04-13T13:56:06.765Z,4.20
2018-04-13T13:58:34.248Z,4.53
2018-04-13T14:01:01.739Z,4.33
2018-04-13T14:03:29.239Z,4.30
2018-04-13T14:05:56.780Z,4.40
2018-04-13T14:08:24.296Z,3.97
2018-04-13T14:10:51.791Z,3.83
2018-04-13T14:13:19.377Z,5.20
2018-04-13T14:15:46.906Z,9.13
2018-04-13T14:18:14.499Z,2.70
2018-04-13T14:20:41.993Z,2.37
2018-04-13T14:23:09.529Z,3.70
2018-04-13T14:25:37.025Z,3.10
2018-04-13T14:28:04.554Z,2.77
2018-04-13T14:30:32.078Z,2.00
2018-04-13T14:32:59.519Z,1.70
2018-04-13T14:35:27.019Z,2.60
2018-04-13T14:37:54.527Z,3.00
2018-04-13T14:40:22.005Z,3.73
2018-04-13T14:42:49.536Z,4.60
2018-04-13T14:45:17.082Z,3.17
2018-04-13T14:47:44.596Z,2.33
2018-04-13T14:50:12.128Z,2.50
2018-04-13T14:52:39.782Z,2.90
2018-04-13T14:55:10.530Z,3.67
2018-04-13T14:57:38.046Z,4.10
2018-04-13T15:00:05.541Z,2.60
2018-04-13T15:02:33.069Z,2.57
2018-04-13T15:05:00.553Z,3.67
2018-04-13T15:07:28.072Z,2.60
2018-04-13T15:09:55.733Z,2.83
2018-04-13T15:12:23.220Z,2.77
2018-04-13T15:14:53.768Z,3.87
2018-04-13T15:17:26.529Z,2.70
2018-04-13T15:19:54.095Z,2.70
2018-04-13T15:22:21.636Z,6.77
2018-04-13T15:24:49.129Z,4.43
2018-04-13T15:27:16.669Z,5.53
2018-04-13T15:29:44.262Z,4.70
2018-04-13T15:32:12.224Z,2.03
2018-04-13T15:34:39.830Z,3.20
2018-04-13T15:37:07.333Z,2.07
2018-04-13T15:39:34.902Z,2.07
2018-04-13T15:42:02.489Z,3.37
2018-04-13T15:44:30.021Z,2.57
2018-04-13T15:46:57.623Z,2.50
2018-04-13T15:49:25.113Z,2.40
2018-04-13T15:51:52.889Z,2.93
2018-04-13T15:54:20.400Z,3.80
2018-04-13T15:56:47.896Z,13.63
2018-04-13T15:59:15.381Z,3.93
2018-04-13T16:01:43.093Z,3.00
2018-04-13T16:04:11.485Z,12.50
2018-04-13T16:06:38.951Z,7.60
2018-04-13T16:09:06.440Z,2.73
2018-04-13T16:11:33.915Z,2.90
2018-04-13T16:14:01.424Z,2.50
2018-04-13T16:16:28.967Z,2.97
2018-04-13T16:18:56.437Z,3.67
2018-04-13T16:21:23.925Z,2.57
2018-04-13T16:23:51.407Z,2.70
2018-04-13T16:26:18.968Z,4.07
2018-04-13T16:28:46.470Z,2.53
2018-04-13T16:31:14.465Z,2.50
2018-04-13T16:33:42.040Z,3.93
2018-04-13T16:36:09.512Z,3.10
2018-04-13T16:38:37.073Z,5.73
2018-04-13T16:41:04.682Z,3.00
2018-04-13T16:43:32.180Z,2.90
2018-04-13T16:45:59.735Z,4.07
2018-04-13T16:48:27.241Z,3.67
2018-04-13T16:50:54.749Z,4.70
2018-04-13T16:53:22.350Z,4.10
2018-04-13T16:55:49.835Z,3.60
2018-04-13T16:58:17.342Z,3.63
2018-04-13T17:00:44.888Z,3.57
2018-04-13T17:03:12.373Z,3.13
2018-04-13T17:05:39.851Z,5.03
2018-04-13T17:08:07.374Z,8.80
2018-04-13T17:10:34.893Z,5.43
2018-04-13T17:13:02.446Z,3.40
2018-04-13T17:15:29.926Z,2.77
2018-04-13T17:17:58.564Z,8.20
2018-04-13T17:20:26.070Z,5.43
2018-04-13T17:22:53.567Z,3.57
2018-04-13T17:25:21.265Z,5.43
2018-04-13T17:27:50.116Z,3.03
2018-04-13T17:30:17.578Z,3.40
2018-04-13T17:32:45.069Z,3.50
2018-04-13T17:35:12.548Z,7.30
2018-04-13T17:37:40.059Z,13.30
2018-04-13T17:40:10.307Z,3.70
2018-04-13T17:45:35.655Z,20.80
2018-04-13T17:48:03.238Z,3.23
2018-04-13T17:50:30.752Z,10.73
2018-04-13T17:52:58.417Z,8.23
2018-04-13T17:55:25.939Z,4.17
2018-04-13T17:57:53.446Z,6.13
2018-04-13T18:00:21.017Z,8.30
2018-04-13T18:02:48.656Z,16.20
2018-04-13T18:05:17.991Z,5.53
2018-04-13T18:07:46.294Z,5.53
2018-04-13T18:10:23.500Z,6.63
2018-04-13T18:12:52.025Z,5.33
2018-04-13T18:15:19.560Z,5.10
2018-04-13T18:17:47.068Z,6.87
2018-04-13T18:20:14.556Z,8.40
2018-04-13T18:22:42.094Z,15.27
2018-04-13T18:25:11.001Z,8.10
2018-04-13T18:27:38.562Z,9.03
2018-04-13T18:30:06.167Z,5.97
2018-04-13T18:32:34.176Z,9.17
2018-04-13T18:35:06.516Z,8.00
2018-04-13T18:37:36.925Z,5.70
2018-04-13T18:40:04.513Z,6.37
2018-04-13T18:42:37.902Z,9.53
2018-04-13T18:45:05.429Z,7.90
2018-04-13T18:47:38.367Z,6.03
2018-04-13T18:50:17.391Z,15.93
2018-04-13T18:52:45.508Z,9.10
2018-04-13T18:55:13.038Z,8.33
2018-04-13T18:57:40.541Z,7.37
2018-04-13T19:00:08.156Z,22.83
2018-04-13T19:02:37.191Z,13.47
2018-04-13T19:05:07.457Z,9.03
2018-04-13T19:07:35.664Z,7.83
2018-04-13T19:10:03.156Z,14.20
2018-04-13T19:12:30.887Z,5.97
2018-04-13T19:17:46.665Z,4.53
2018-04-13T19:23:09.724Z,7.90
2018-04-13T19:25:37.265Z,6.47
2018-04-13T19:28:04.743Z,8.00
2018-04-13T19:30:32.222Z,14.90
2018-04-13T19:32:59.732Z,24.87
2018-04-13T19:35:27.214Z,8.90
2018-04-13T19:37:54.768Z,5.27
2018-04-13T19:40:22.267Z,4.63
2018-04-13T19:42:50.275Z,6.47
2018-04-13T19:45:17.847Z,7.60
2018-04-13T19:47:45.283Z,6.83
2018-04-13T19:50:12.791Z,6.90
2018-04-13T19:52:40.333Z,5.33
2018-04-13T19:55:07.853Z,8.70
2018-04-13T19:57:35.351Z,6.10
2018-04-13T20:00:02.964Z,11.77
2018-04-13T20:02:30.533Z,5.60
2018-04-13T20:04:58.258Z,6.93
2018-04-13T20:07:25.753Z,5.43
2018-04-13T20:09:53.363Z,5.20
2018-04-13T20:12:20.857Z,5.20
2018-04-13T20:14:48.376Z,6.53
2018-04-13T20:17:15.908Z,5.93
2018-04-13T20:19:43.381Z,4.10
2018-04-13T20:22:10.857Z,4.00
2018-04-13T20:24:38.433Z,4.00
2018-04-13T20:27:06.004Z,5.90
2018-04-13T20:29:34.040Z,6.57
2018-04-13T20:32:01.642Z,12.80
2018-04-13T20:34:29.154Z,6.90
2018-04-13T20:36:56.648Z,4.17
2018-04-13T20:39:24.906Z,5.67
2018-04-13T20:41:52.605Z,3.87
2018-04-13T20:44:20.121Z,7.60
2018-04-13T20:46:47.617Z,4.70
2018-04-13T20:49:15.121Z,5.97
2018-04-13T20:51:42.633Z,4.40
2018-04-13T20:54:10.136Z,4.73
2018-04-13T20:56:37.654Z,5.37
2018-04-13T20:59:05.190Z,9.20
2018-04-13T21:01:32.860Z,4.57
2018-04-13T21:04:00.393Z,8.33
2018-04-13T21:06:27.887Z,4.97
2018-04-13T21:08:55.405Z,5.63
2018-04-13T21:11:22.939Z,5.70
2018-04-13T21:13:51.291Z,12.23
2018-04-13T21:16:18.777Z,9.47
2018-04-13T21:18:46.373Z,7.00
2018-04-13T21:21:13.846Z,5.93
2018-04-13T21:23:41.349Z,6.57
2018-04-13T21:26:08.843Z,5.47
2018-04-13T21:28:36.363Z,6.83
2018-04-13T21:31:03.849Z,12.77
2018-04-13T21:33:31.357Z,7.30
2018-04-13T21:35:58.837Z,6.53
2018-04-13T21:38:26.363Z,7.70
2018-04-13T21:40:53.936Z,5.30
2018-04-13T21:43:21.934Z,7.07
2018-04-13T21:45:49.463Z,8.30
2018-04-13T21:48:16.957Z,7.00
2018-04-13T21:50:44.440Z,6.13
2018-04-13T21:53:11.906Z,8.97
2018-04-13T21:55:39.389Z,8.68
2018-04-13T21:58:06.939Z,8.53
2018-04-13T22:00:34.466Z,7.60
2018-04-13T22:03:01.961Z,8.63
2018-04-13T22:05:29.462Z,11.52
2018-04-13T22:07:57.003Z,9.07
2018-04-13T22:10:24.498Z,10.30
2018-04-13T22:13:03.904Z,7.73
2018-04-13T22:15:31.464Z,8.27
2018-04-13T22:17:58.967Z,8.98
2018-04-13T22:20:26.524Z,7.80
2018-04-13T22:22:54.007Z,8.83
2018-04-13T22:25:21.508Z,7.13
2018-04-13T22:27:49.108Z,7.65
2018-04-13T22:30:16.610Z,7.40
2018-04-13T22:32:44.167Z,6.55
2018-04-13T22:35:11.646Z,12.43
2018-04-13T22:37:39.666Z,5.60
2018-04-13T22:40:07.337Z,5.67
2018-04-13T22:42:34.914Z,7.17
2018-04-13T22:45:02.409Z,6.50
2018-04-13T22:47:29.926Z,6.25
2018-04-13T22:49:57.461Z,6.60
2018-04-13T22:52:25.192Z,7.43
2018-04-13T22:54:52.677Z,9.53
2018-04-13T22:57:20.164Z,8.83
2018-04-13T22:59:47.675Z,5.85
2018-04-13T23:02:15.553Z,6.10
2018-04-13T23:04:43.074Z,7.47
2018-04-13T23:07:10.570Z,8.17
2018-04-13T23:09:38.049Z,6.18
2018-04-13T23:12:05.558Z,7.85
2018-04-13T23:14:33.057Z,5.93
2018-04-13T23:17:00.554Z,6.20
2018-04-13T23:19:28.079Z,5.97
2018-04-13T23:21:55.586Z,6.97
2018-04-13T23:24:23.195Z,5.30
2018-04-13T23:26:50.706Z,4.97
2018-04-13T23:29:18.180Z,5.80
2018-04-13T23:31:45.654Z,7.53
2018-04-13T23:34:13.154Z,8.93
2018-04-13T23:36:40.644Z,6.90
2018-04-13T23:39:08.129Z,7.97
2018-04-13T23:41:35.646Z,6.10
2018-04-13T23:44:03.146Z,9.68
2018-04-13T23:46:30.639Z,8.55
2018-04-13T23:48:58.125Z,6.90
2018-04-13T23:51:25.668Z,6.80
2018-04-13T23:53:53.160Z,7.55
2018-04-13T23:56:20.649Z,7.87
2018-04-13T23:58:48.148Z,6.40
